Southern Lily — 9VJK4 — position and weather

sailwx.info

Track history (hours):
 
Tides and Currents Weather Stations Pressure Air Temp Water Temp Dewpoint Dewpoint Depression Visibility Wind Speed Wind Dir Waves Ship Positions

Southern Lily

Last reported at 2016-Aug-15 22:07 UTC. Time now 2016-Aug-26 19:59 UTC.
Position S 36°14' E 174°58'.
Warning: this ship's position is 10 days out of date.

Length 146 m; draft 8.2 m.

Type: Cargo ship. MMSI: 565050000.

Date/timePositionNaut miles runAvg speedWind from/ knotsBaromVisibWave heightAir tempDewpointWater temp
2016-Aug-15 22:07S 36°14' E 174°58'5 8.7
2016-Aug-15 21:32S 36°19' E 174°59'9 8.8
2016-Aug-15 20:33S 36°27' E 175°00'9 8.8
2016-Aug-15 19:33S 36°36' E 174°58'9 9.2
2016-Aug-15 18:33S 36°43' E 174°51'7 7.3
2016-Aug-15 17:33S 36°50' E 174°49'2 1.5
2016-Aug-15 16:30S 36°51' E 174°47'0 0.0
2016-Aug-15 15:30S 36°51' E 174°47'0 0.0
2016-Aug-15 14:24S 36°51' E 174°47'0 0.0
2016-Aug-15 13:24S 36°51' E 174°47'0 0.0
2016-Aug-15 12:30S 36°51' E 174°47'0 0.0
2016-Aug-15 11:24S 36°51' E 174°47'0 0.0
2016-Aug-15 10:30S 36°51' E 174°47'0 0.0
2016-Aug-15 09:30S 36°51' E 174°47'0 0.0
2016-Aug-15 08:30S 36°51' E 174°47'0 0.0
2016-Aug-15 07:30S 36°51' E 174°47'0 0.0
2016-Aug-15 06:30S 36°51' E 174°47'0 0.0
2016-Aug-15 04:30S 36°51' E 174°47'0 0.0
2016-Aug-15 03:12S 36°51' E 174°47'0 0.0
2016-Aug-15 02:24S 36°51' E 174°47'0 0.0
2016-Aug-15 01:24S 36°51' E 174°47'0 0.0
2016-Aug-15 00:30S 36°51' E 174°47'0 0.0
2016-Aug-14 23:24S 36°51' E 174°47'0 0.0
2016-Aug-14 22:30S 36°51' E 174°47'0 0.0
2016-Aug-14 21:30S 36°51' E 174°47'0 0.0
2016-Aug-14 20:24S 36°51' E 174°47'0 0.0
2016-Aug-14 19:30S 36°51' E 174°47'0 0.0
2016-Aug-14 18:30S 36°51' E 174°47'0 0.0
2016-Aug-14 17:24S 36°51' E 174°47'0 0.0
2016-Aug-14 16:30S 36°51' E 174°47'0 0.0
2016-Aug-14 15:30S 36°51' E 174°47'0 0.0
2016-Aug-14 14:30S 36°51' E 174°47'0 0.0
2016-Aug-14 13:30S 36°51' E 174°47'0 0.0
2016-Aug-14 12:24S 36°51' E 174°47'0 0.0
2016-Aug-14 11:30S 36°51' E 174°47'0 0.0
2016-Aug-14 10:24S 36°51' E 174°47'0 0.0
2016-Aug-14 09:33S 36°51' E 174°47'0 0.0
2016-Aug-14 08:16S 36°51' E 174°47'0 0.0
2016-Aug-14 07:28S 36°51' E 174°47'0 0.0
2016-Aug-14 06:10S 36°51' E 174°47'0 0.0
2016-Aug-14 03:28S 36°51' E 174°47'0 0.0
2016-Aug-14 02:28S 36°51' E 174°47'0 0.0
2016-Aug-14 00:28S 36°51' E 174°47'0 0.0
2016-Aug-13 21:16S 36°51' E 174°47'0 0.0
2016-Aug-13 20:28S 36°51' E 174°47'0 0.0
2016-Aug-13 19:28S 36°51' E 174°47'0 0.0
2016-Aug-13 18:22S 36°51' E 174°47'3 3.4
2016-Aug-13 17:33S 36°49' E 174°50'9 9.0
2016-Aug-13 16:33S 36°41' E 174°54'7 7.3
2016-Aug-13 15:33S 36°35' E 174°58'9 8.9
2016-Aug-13 14:33S 36°26' E 174°60'1110.7
2016-Aug-13 13:33S 36°15' E 174°58'  
Track history (hours):
 
Tides and Currents Weather Stations Pressure Air Temp Water Temp Dewpoint Dewpoint Depression Visibility Wind Speed Wind Dir Waves Ship Positions

Southern Lily

Last reported at 2016-Aug-15 22:07 UTC. Time now 2016-Aug-26 19:59 UTC.
Position S 36°14' E 174°58'.
Warning: this ship's position is 10 days out of date.

Length 146 m; draft 8.2 m.

Type: Cargo ship. MMSI: 565050000.

Date/timePositionNaut miles runAvg speedWind from/ knotsBaromVisibWave heightAir tempDewpointWater temp
2016-Aug-15 22:07S 36°14' E 174°58'5 8.7
2016-Aug-15 21:32S 36°19' E 174°59'9 8.8
2016-Aug-15 20:33S 36°27' E 175°00'9 8.8
2016-Aug-15 19:33S 36°36' E 174°58'9 9.2
2016-Aug-15 18:33S 36°43' E 174°51'7 7.3
2016-Aug-15 17:33S 36°50' E 174°49'2 1.5
2016-Aug-15 16:30S 36°51' E 174°47'0 0.0
2016-Aug-15 15:30S 36°51' E 174°47'0 0.0
2016-Aug-15 14:24S 36°51' E 174°47'0 0.0
2016-Aug-15 13:24S 36°51' E 174°47'0 0.0
2016-Aug-15 12:30S 36°51' E 174°47'0 0.0
2016-Aug-15 11:24S 36°51' E 174°47'0 0.0
2016-Aug-15 10:30S 36°51' E 174°47'0 0.0
2016-Aug-15 09:30S 36°51' E 174°47'0 0.0
2016-Aug-15 08:30S 36°51' E 174°47'0 0.0
2016-Aug-15 07:30S 36°51' E 174°47'0 0.0
2016-Aug-15 06:30S 36°51' E 174°47'0 0.0
2016-Aug-15 04:30S 36°51' E 174°47'0 0.0
2016-Aug-15 03:12S 36°51' E 174°47'0 0.0
2016-Aug-15 02:24S 36°51' E 174°47'0 0.0
2016-Aug-15 01:24S 36°51' E 174°47'0 0.0
2016-Aug-15 00:30S 36°51' E 174°47'0 0.0
2016-Aug-14 23:24S 36°51' E 174°47'0 0.0
2016-Aug-14 22:30S 36°51' E 174°47'0 0.0
2016-Aug-14 21:30S 36°51' E 174°47'0 0.0
2016-Aug-14 20:24S 36°51' E 174°47'0 0.0
2016-Aug-14 19:30S 36°51' E 174°47'0 0.0
2016-Aug-14 18:30S 36°51' E 174°47'0 0.0
2016-Aug-14 17:24S 36°51' E 174°47'0 0.0
2016-Aug-14 16:30S 36°51' E 174°47'0 0.0
2016-Aug-14 15:30S 36°51' E 174°47'0 0.0
2016-Aug-14 14:30S 36°51' E 174°47'0 0.0
2016-Aug-14 13:30S 36°51' E 174°47'0 0.0
2016-Aug-14 12:24S 36°51' E 174°47'0 0.0
2016-Aug-14 11:30S 36°51' E 174°47'0 0.0
2016-Aug-14 10:24S 36°51' E 174°47'0 0.0
2016-Aug-14 09:33S 36°51' E 174°47'0 0.0
2016-Aug-14 08:16S 36°51' E 174°47'0 0.0
2016-Aug-14 07:28S 36°51' E 174°47'0 0.0
2016-Aug-14 06:10S 36°51' E 174°47'0 0.0
2016-Aug-14 03:28S 36°51' E 174°47'0 0.0
2016-Aug-14 02:28S 36°51' E 174°47'0 0.0
2016-Aug-14 00:28S 36°51' E 174°47'0 0.0
2016-Aug-13 21:16S 36°51' E 174°47'0 0.0
2016-Aug-13 20:28S 36°51' E 174°47'0 0.0
2016-Aug-13 19:28S 36°51' E 174°47'0 0.0
2016-Aug-13 18:22S 36°51' E 174°47'3 3.4
2016-Aug-13 17:33S 36°49' E 174°50'9 9.0
2016-Aug-13 16:33S 36°41' E 174°54'7 7.3
2016-Aug-13 15:33S 36°35' E 174°58'9 8.9
2016-Aug-13 14:33S 36°26' E 174°60'1110.7
2016-Aug-13 13:33S 36°15' E 174°58'  

Dump ship's entire track history